createdAt,value
2023-02-24T00:00:47.386Z,20.90
2023-02-24T00:01:46.630Z,21.00
2023-02-24T00:02:46.700Z,24.80
2023-02-24T00:03:46.637Z,28.20
2023-02-24T00:04:46.545Z,27.10
2023-02-24T00:05:46.513Z,28.60
2023-02-24T00:06:46.489Z,32.80
2023-02-24T00:07:46.466Z,32.60
2023-02-24T00:08:46.435Z,24.40
2023-02-24T00:09:46.397Z,30.80
2023-02-24T00:10:46.376Z,27.30
2023-02-24T00:11:46.387Z,21.10
2023-02-24T00:12:46.313Z,21.50
2023-02-24T00:13:46.284Z,20.90
2023-02-24T00:14:46.261Z,23.50
2023-02-24T00:15:46.225Z,24.10
2023-02-24T00:16:46.292Z,21.70
2023-02-24T00:17:46.181Z,24.20
2023-02-24T00:18:46.164Z,23.80
2023-02-24T00:19:46.112Z,21.90
2023-02-24T00:20:46.087Z,20.50
2023-02-24T00:21:46.063Z,25.50
2023-02-24T00:22:46.028Z,21.30
2023-02-24T00:23:45.993Z,26.70
2023-02-24T00:24:45.966Z,19.80
2023-02-24T00:25:45.969Z,23.80
2023-02-24T00:26:45.984Z,20.90
2023-02-24T00:27:45.899Z,16.30
2023-02-24T00:28:45.860Z,22.60
2023-02-24T00:29:45.864Z,19.60
2023-02-24T00:30:45.820Z,19.70
2023-02-24T00:31:46.004Z,22.10
2023-02-24T00:32:45.914Z,23.40
2023-02-24T00:33:45.713Z,20.30
2023-02-24T00:34:45.685Z,27.30
2023-02-24T00:35:45.657Z,21.50
2023-02-24T00:36:45.635Z,17.70
2023-02-24T00:37:45.598Z,19.10
2023-02-24T00:38:45.573Z,23.70
2023-02-24T00:39:45.540Z,18.40
2023-02-24T00:40:45.527Z,23.40
2023-02-24T00:41:45.483Z,21.20
2023-02-24T00:42:45.461Z,19.80
2023-02-24T00:43:45.449Z,21.70
2023-02-24T00:44:45.473Z,19.40
2023-02-24T00:45:45.371Z,19.00
2023-02-24T00:46:45.344Z,17.80
2023-02-24T00:47:45.312Z,21.70
2023-02-24T00:48:45.285Z,22.60
2023-02-24T00:49:45.258Z,18.00
2023-02-24T00:50:45.228Z,20.80
2023-02-24T00:51:45.198Z,18.40
2023-02-24T00:52:45.169Z,18.80
2023-02-24T00:53:45.138Z,21.70
2023-02-24T00:54:45.121Z,22.60
2023-02-24T00:55:45.080Z,21.30
2023-02-24T00:56:45.054Z,22.00
2023-02-24T00:57:45.024Z,20.30
2023-02-24T00:58:44.994Z,16.80
2023-02-24T00:59:44.982Z,18.90
2023-02-24T01:00:44.936Z,19.90
2023-02-24T01:01:44.965Z,19.10
2023-02-24T01:02:44.881Z,19.90
2023-02-24T01:03:44.932Z,21.40
2023-02-24T01:04:44.828Z,17.30
2023-02-24T01:05:44.790Z,20.30
2023-02-24T01:06:44.765Z,19.00
2023-02-24T01:07:44.730Z,19.90
2023-02-24T01:08:44.703Z,16.60
2023-02-24T01:09:44.674Z,14.40
2023-02-24T01:10:44.644Z,15.50
2023-02-24T01:11:44.642Z,19.50
2023-02-24T01:12:44.588Z,21.60
2023-02-24T01:13:44.558Z,24.60
2023-02-24T01:14:44.529Z,24.00
2023-02-24T01:15:44.589Z,23.90
2023-02-24T01:16:44.472Z,21.20
2023-02-24T01:17:44.438Z,27.30
2023-02-24T01:18:44.412Z,21.00
2023-02-24T01:19:44.458Z,19.60
2023-02-24T01:20:44.440Z,23.40
2023-02-24T01:21:44.322Z,21.10
2023-02-24T01:22:44.294Z,15.90
2023-02-24T01:23:44.266Z,23.30
2023-02-24T01:24:44.259Z,24.00
2023-02-24T01:25:44.204Z,17.90
2023-02-24T01:26:44.186Z,21.60
2023-02-24T01:27:44.156Z,18.20
2023-02-24T01:28:44.121Z,17.90
2023-02-24T01:29:44.091Z,15.90
2023-02-24T01:30:44.070Z,18.90
2023-02-24T01:31:44.316Z,21.40
2023-02-24T01:32:44.232Z,22.80
2023-02-24T01:33:43.976Z,19.50
2023-02-24T01:34:43.947Z,16.00
2023-02-24T01:35:43.927Z,19.60
2023-02-24T01:36:43.889Z,20.20
2023-02-24T01:37:43.867Z,19.70
2023-02-24T01:38:43.837Z,16.10
2023-02-24T01:39:43.805Z,14.70
2023-02-24T01:40:43.778Z,24.50
2023-02-24T01:41:43.747Z,17.10
2023-02-24T01:42:43.717Z,14.60
2023-02-24T01:43:43.687Z,17.00
2023-02-24T01:44:43.764Z,18.00
2023-02-24T01:45:43.631Z,15.10
2023-02-24T01:46:43.666Z,20.00
2023-02-24T01:47:43.591Z,15.50
2023-02-24T01:48:43.545Z,16.20
2023-02-24T01:49:43.517Z,17.40
2023-02-24T01:50:43.485Z,18.10
2023-02-24T01:51:43.458Z,23.90
2023-02-24T01:52:43.425Z,17.60
2023-02-24T01:53:43.399Z,20.10
2023-02-24T01:54:43.369Z,13.50
2023-02-24T01:55:43.345Z,17.40
2023-02-24T01:56:43.310Z,19.90
2023-02-24T01:57:43.284Z,15.10
2023-02-24T01:58:43.252Z,18.70
2023-02-24T01:59:43.228Z,16.70
2023-02-24T02:00:43.197Z,13.40
2023-02-24T02:01:43.341Z,16.90
2023-02-24T02:02:43.378Z,22.30
2023-02-24T02:03:43.134Z,19.40
2023-02-24T02:04:43.082Z,15.40
2023-02-24T02:05:43.056Z,20.50
2023-02-24T02:06:43.022Z,16.40
2023-02-24T02:07:42.995Z,20.00
2023-02-24T02:08:42.976Z,15.70
2023-02-24T02:09:42.942Z,15.00
2023-02-24T02:10:42.905Z,15.40
2023-02-24T02:11:42.896Z,12.40
2023-02-24T02:12:42.847Z,22.20
2023-02-24T02:13:42.935Z,18.30
2023-02-24T02:14:42.792Z,15.90
2023-02-24T02:15:42.758Z,16.30
2023-02-24T02:16:42.733Z,14.00
2023-02-24T02:17:42.708Z,16.20
2023-02-24T02:18:42.672Z,14.60
2023-02-24T02:19:42.668Z,16.30
2023-02-24T02:20:42.625Z,12.10
2023-02-24T02:21:42.589Z,18.80
2023-02-24T02:22:42.556Z,17.40
2023-02-24T02:23:42.528Z,13.80
2023-02-24T02:24:42.541Z,13.60
2023-02-24T02:25:42.472Z,16.40
2023-02-24T02:26:42.438Z,14.70
2023-02-24T02:27:42.411Z,14.80
2023-02-24T02:28:42.400Z,18.00
2023-02-24T02:29:42.356Z,15.50
2023-02-24T02:30:42.347Z,17.30
2023-02-24T02:31:42.509Z,18.60
2023-02-24T02:32:42.431Z,22.00
2023-02-24T02:33:42.236Z,11.70
2023-02-24T02:34:42.208Z,22.40
2023-02-24T02:35:42.199Z,15.10
2023-02-24T02:36:42.148Z,12.50
2023-02-24T02:37:42.125Z,12.00
2023-02-24T02:38:42.092Z,12.30
2023-02-24T02:39:42.063Z,12.30
2023-02-24T02:40:42.032Z,12.70
2023-02-24T02:41:42.009Z,14.40
2023-02-24T02:42:41.973Z,18.00
2023-02-24T02:43:41.944Z,14.20
2023-02-24T02:44:41.914Z,17.10
2023-02-24T02:45:41.952Z,17.30
2023-02-24T02:46:41.861Z,15.50
2023-02-24T02:47:41.823Z,12.20
2023-02-24T02:48:41.795Z,18.60
2023-02-24T02:49:41.768Z,11.50
2023-02-24T02:50:41.745Z,16.90
2023-02-24T02:51:41.731Z,11.90
2023-02-24T02:52:41.679Z,15.90
2023-02-24T02:53:41.652Z,13.60
2023-02-24T02:54:41.618Z,12.50
2023-02-24T02:55:41.599Z,18.00
2023-02-24T02:56:41.562Z,19.60
2023-02-24T02:57:41.530Z,12.40
2023-02-24T02:58:41.501Z,16.00
2023-02-24T02:59:41.476Z,19.40
2023-02-24T03:00:41.504Z,18.70
2023-02-24T03:01:41.415Z,15.50
2023-02-24T03:02:41.390Z,14.00
2023-02-24T03:03:41.356Z,20.00
2023-02-24T03:04:41.359Z,16.70
2023-02-24T03:05:41.298Z,11.30
2023-02-24T03:06:41.266Z,18.10
2023-02-24T03:07:41.256Z,14.20
2023-02-24T03:08:41.210Z,13.50
2023-02-24T03:09:41.184Z,14.80
2023-02-24T03:10:41.150Z,14.80
2023-02-24T03:11:41.121Z,12.60
2023-02-24T03:12:41.099Z,11.00
2023-02-24T03:13:41.093Z,16.90
2023-02-24T03:14:41.033Z,12.90
2023-02-24T03:15:41.003Z,14.50
2023-02-24T03:16:41.018Z,10.40
2023-02-24T03:17:40.959Z,15.10
2023-02-24T03:18:40.937Z,15.90
2023-02-24T03:19:40.887Z,12.10
2023-02-24T03:20:40.860Z,16.30
2023-02-24T03:21:40.839Z,17.60
2023-02-24T03:22:40.796Z,15.60
2023-02-24T03:23:40.789Z,14.90
2023-02-24T03:24:40.738Z,13.60
2023-02-24T03:25:40.714Z,12.90
2023-02-24T03:26:40.684Z,10.40
2023-02-24T03:27:40.655Z,16.10
2023-02-24T03:28:40.627Z,14.70
2023-02-24T03:29:40.596Z,15.20
2023-02-24T03:30:40.610Z,12.30
2023-02-24T03:31:40.700Z,13.50
2023-02-24T03:32:40.625Z,15.00
2023-02-24T03:33:40.479Z,14.80
2023-02-24T03:34:40.448Z,15.80
2023-02-24T03:35:40.420Z,22.00
2023-02-24T03:36:40.392Z,14.30
2023-02-24T03:37:40.362Z,8.20
2023-02-24T03:38:40.331Z,11.80
2023-02-24T03:39:40.319Z,14.60
2023-02-24T03:40:40.274Z,16.10
2023-02-24T03:41:40.243Z,14.00
2023-02-24T03:42:40.270Z,9.10
2023-02-24T03:43:40.191Z,11.10
2023-02-24T03:44:40.153Z,11.00
2023-02-24T03:45:40.164Z,11.90
2023-02-24T03:46:40.093Z,9.90
2023-02-24T03:47:40.065Z,16.50
2023-02-24T03:48:40.038Z,15.10
2023-02-24T03:49:40.017Z,12.80
2023-02-24T03:50:39.976Z,13.70
2023-02-24T03:51:39.955Z,13.20
2023-02-24T03:52:39.921Z,15.20
2023-02-24T03:53:39.889Z,15.90
2023-02-24T03:54:39.858Z,13.10
2023-02-24T03:55:39.860Z,13.10
2023-02-24T03:56:39.799Z,12.40
2023-02-24T03:57:39.767Z,9.50
2023-02-24T03:58:39.748Z,11.70
2023-02-24T03:59:39.718Z,16.70
2023-02-24T04:00:39.678Z,13.00
2023-02-24T04:01:39.653Z,9.40
2023-02-24T04:02:39.658Z,16.40
2023-02-24T04:03:39.635Z,13.20
2023-02-24T04:04:39.610Z,11.40
2023-02-24T04:05:39.566Z,15.90
2023-02-24T04:06:39.503Z,13.70
2023-02-24T04:07:39.473Z,13.20
2023-02-24T04:08:39.449Z,13.30
2023-02-24T04:09:39.414Z,13.00
2023-02-24T04:10:39.385Z,11.60
2023-02-24T04:11:39.374Z,17.60
2023-02-24T04:12:39.362Z,12.50
2023-02-24T04:13:39.299Z,9.40
2023-02-24T04:14:39.264Z,10.60
2023-02-24T04:15:39.469Z,14.50
2023-02-24T04:16:39.209Z,16.60
2023-02-24T04:17:39.178Z,15.90
2023-02-24T04:18:40.880Z,14.40
2023-02-24T04:19:39.118Z,12.00
2023-02-24T04:20:39.086Z,16.50
2023-02-24T04:21:39.056Z,13.70
2023-02-24T04:22:39.029Z,10.60
2023-02-24T04:23:39.003Z,11.40
2023-02-24T04:24:38.971Z,14.60
2023-02-24T04:25:38.943Z,13.20
2023-02-24T04:26:38.915Z,17.10
2023-02-24T04:27:38.898Z,7.60
2023-02-24T04:28:38.887Z,7.60
2023-02-24T04:29:39.174Z,12.40
2023-02-24T04:31:31.468Z,11.20
2023-02-24T04:31:39.101Z,11.50
2023-02-24T04:32:38.864Z,10.20
2023-02-24T04:33:38.705Z,10.70
2023-02-24T04:34:38.685Z,10.60
2023-02-24T04:35:38.648Z,15.80
2023-02-24T04:36:38.614Z,14.50
2023-02-24T04:37:38.604Z,11.00
2023-02-24T04:38:38.557Z,14.80
2023-02-24T04:39:38.561Z,10.90
2023-02-24T04:40:38.496Z,11.80
2023-02-24T04:41:38.463Z,13.90
2023-02-24T04:42:38.438Z,11.60
2023-02-24T04:43:38.426Z,9.90
2023-02-24T04:44:38.381Z,10.50
2023-02-24T04:45:38.347Z,9.80
2023-02-24T04:46:38.373Z,11.60
2023-02-24T04:47:38.285Z,11.00
2023-02-24T04:48:38.260Z,11.60
2023-02-24T04:49:38.229Z,14.40
2023-02-24T04:50:38.203Z,11.30
2023-02-24T04:51:38.166Z,9.60
2023-02-24T04:52:38.145Z,15.30
2023-02-24T04:53:38.107Z,9.80
2023-02-24T04:54:38.084Z,9.50
2023-02-24T04:55:38.046Z,13.00
2023-02-24T04:56:38.023Z,7.80
2023-02-24T04:57:37.994Z,11.00
2023-02-24T04:58:37.977Z,12.80
2023-02-24T04:59:37.952Z,13.80
2023-02-24T05:00:37.904Z,9.80
2023-02-24T05:01:37.874Z,10.50
2023-02-24T05:02:37.845Z,13.60
2023-02-24T05:03:37.838Z,10.60
2023-02-24T05:04:37.861Z,9.40
2023-02-24T05:05:37.758Z,9.40
2023-02-24T05:06:37.725Z,10.40
2023-02-24T05:07:37.695Z,13.60
2023-02-24T05:08:37.680Z,11.30
2023-02-24T05:09:37.634Z,10.30
2023-02-24T05:10:37.606Z,9.80
2023-02-24T05:11:37.576Z,16.00
2023-02-24T05:12:37.547Z,12.00
2023-02-24T05:13:37.564Z,14.00
2023-02-24T05:14:37.513Z,12.40
2023-02-24T05:15:37.486Z,10.70
2023-02-24T05:16:37.508Z,12.10
2023-02-24T05:17:37.399Z,12.30
2023-02-24T05:18:37.488Z,11.10
2023-02-24T05:19:37.342Z,14.20
2023-02-24T05:20:37.312Z,13.60
2023-02-24T05:21:37.284Z,12.30
2023-02-24T05:22:37.250Z,11.50
2023-02-24T05:23:37.227Z,9.60
2023-02-24T05:24:37.194Z,12.10
2023-02-24T05:25:37.160Z,9.60
2023-02-24T05:26:37.143Z,8.90
2023-02-24T05:27:37.103Z,13.00
2023-02-24T05:28:37.089Z,8.10
2023-02-24T05:29:37.040Z,10.90
2023-02-24T05:30:37.089Z,8.60
2023-02-24T05:31:37.290Z,13.20
2023-02-24T05:32:38.038Z,11.80
2023-02-24T05:33:36.928Z,11.10
2023-02-24T05:34:36.949Z,10.50
2023-02-24T05:35:36.884Z,9.60
2023-02-24T05:36:36.865Z,9.30
2023-02-24T05:37:36.800Z,10.80
2023-02-24T05:38:36.775Z,10.50
2023-02-24T05:39:36.740Z,13.70
2023-02-24T05:40:36.713Z,7.80
2023-02-24T05:41:36.684Z,8.00
2023-02-24T05:42:36.652Z,9.30
2023-02-24T05:43:36.623Z,7.10
2023-02-24T05:44:36.599Z,11.20
2023-02-24T05:45:36.564Z,12.90
2023-02-24T05:46:36.615Z,12.20
2023-02-24T05:47:36.521Z,11.10
2023-02-24T05:48:36.534Z,11.90
2023-02-24T05:49:36.441Z,14.30
2023-02-24T05:50:36.414Z,10.60
2023-02-24T05:51:36.387Z,11.60
2023-02-24T05:52:36.358Z,9.90
2023-02-24T05:53:36.343Z,9.50
2023-02-24T05:54:36.296Z,11.50
2023-02-24T05:55:36.268Z,8.00
2023-02-24T05:56:36.236Z,10.00
2023-02-24T05:57:36.213Z,15.20
2023-02-24T05:58:36.176Z,13.30
2023-02-24T05:59:36.161Z,6.20
2023-02-24T06:00:36.126Z,10.00
2023-02-24T06:01:36.151Z,9.30
2023-02-24T06:02:36.066Z,10.40
2023-02-24T06:03:36.056Z,12.80
2023-02-24T06:04:35.998Z,9.20
2023-02-24T06:05:35.970Z,7.90
2023-02-24T06:06:35.993Z,10.00
2023-02-24T06:07:35.910Z,11.10
2023-02-24T06:08:35.882Z,11.10
2023-02-24T06:09:35.860Z,8.60
2023-02-24T06:10:35.822Z,10.80
2023-02-24T06:11:35.863Z,12.60
2023-02-24T06:12:35.770Z,11.70
2023-02-24T06:13:35.736Z,9.90
2023-02-24T06:14:35.718Z,9.90
2023-02-24T06:15:35.682Z,8.30
2023-02-24T06:16:35.746Z,13.80
2023-02-24T06:17:35.641Z,11.70
2023-02-24T06:18:35.586Z,12.60
2023-02-24T06:19:35.577Z,12.30
2023-02-24T06:20:35.528Z,9.60
2023-02-24T06:21:35.502Z,12.10
2023-02-24T06:22:35.478Z,14.00
2023-02-24T06:23:35.440Z,11.70
2023-02-24T06:24:35.407Z,10.50
2023-02-24T06:25:35.388Z,10.90
2023-02-24T06:26:35.354Z,10.30
2023-02-24T06:27:35.321Z,9.20
2023-02-24T06:28:35.288Z,7.30
2023-02-24T06:29:35.264Z,10.40
2023-02-24T06:30:35.310Z,10.60
2023-02-24T06:31:35.233Z,12.40
2023-02-24T06:32:35.343Z,9.60
2023-02-24T06:33:35.145Z,12.70
2023-02-24T06:34:35.115Z,12.50
2023-02-24T06:35:35.113Z,10.80
2023-02-24T06:36:35.057Z,10.80
2023-02-24T06:37:35.030Z,9.80
2023-02-24T06:38:35.002Z,8.80
2023-02-24T06:39:36.781Z,6.10
2023-02-24T06:40:34.940Z,10.90
2023-02-24T06:41:34.917Z,10.10
2023-02-24T06:42:34.983Z,9.20
2023-02-24T06:43:34.853Z,11.40
2023-02-24T06:44:34.824Z,9.20
2023-02-24T06:45:34.849Z,9.30
2023-02-24T06:46:34.779Z,10.20
2023-02-24T06:47:34.735Z,12.80
2023-02-24T06:48:34.716Z,12.20
2023-02-24T06:49:34.676Z,9.90
2023-02-24T06:50:34.650Z,10.00
2023-02-24T06:51:34.674Z,13.10
2023-02-24T06:52:34.613Z,12.10
2023-02-24T06:53:34.559Z,11.00
2023-02-24T06:54:34.524Z,8.50
2023-02-24T06:55:34.499Z,15.80
2023-02-24T06:56:34.466Z,10.20
2023-02-24T06:57:34.456Z,14.60
2023-02-24T06:58:34.419Z,26.60
2023-02-24T06:59:34.387Z,15.90
2023-02-24T07:00:34.348Z,23.20
2023-02-24T07:01:34.344Z,17.00
2023-02-24T07:02:34.287Z,10.70
2023-02-24T07:03:34.264Z,13.10
2023-02-24T07:04:34.286Z,13.80
2023-02-24T07:05:34.216Z,15.00
2023-02-24T07:06:34.178Z,11.40
2023-02-24T07:07:34.160Z,12.80
2023-02-24T07:08:34.119Z,11.00
2023-02-24T07:09:34.089Z,13.20
2023-02-24T07:10:34.050Z,13.20
2023-02-24T07:11:34.022Z,9.20
2023-02-24T07:12:33.992Z,8.10
2023-02-24T07:13:33.976Z,11.60
2023-02-24T07:14:33.977Z,11.90
2023-02-24T07:15:33.902Z,9.30
2023-02-24T07:16:33.925Z,10.70
2023-02-24T07:17:33.846Z,10.60
2023-02-24T07:18:33.816Z,10.70
2023-02-24T07:19:33.788Z,11.40
2023-02-24T07:20:33.753Z,10.60
2023-02-24T07:21:33.730Z,12.40
2023-02-24T07:22:33.707Z,12.00
2023-02-24T07:23:33.691Z,8.20
2023-02-24T07:24:33.758Z,6.70
2023-02-24T07:25:33.615Z,11.60
2023-02-24T07:26:33.586Z,14.40
2023-02-24T07:27:33.555Z,10.10
2023-02-24T07:28:33.521Z,8.90
2023-02-24T07:29:33.491Z,8.30
2023-02-24T07:30:33.576Z,11.50
2023-02-24T07:31:33.636Z,10.00
2023-02-24T07:32:33.416Z,15.50
2023-02-24T07:33:33.375Z,17.00
2023-02-24T07:34:33.345Z,20.70
2023-02-24T07:35:33.317Z,14.70
2023-02-24T07:36:33.288Z,12.10
2023-02-24T07:37:33.256Z,10.00
2023-02-24T07:38:33.222Z,11.60
2023-02-24T07:39:33.221Z,16.40
2023-02-24T07:40:33.162Z,14.00
2023-02-24T07:41:33.134Z,11.70
2023-02-24T07:42:33.105Z,10.20
2023-02-24T07:43:33.075Z,7.10
2023-02-24T07:44:33.074Z,14.00
2023-02-24T07:45:33.064Z,8.10
2023-02-24T07:46:33.051Z,11.00
2023-02-24T07:47:32.954Z,14.20
2023-02-24T07:48:32.924Z,12.20
2023-02-24T07:49:32.897Z,10.30
2023-02-24T07:50:33.063Z,15.10
2023-02-24T07:51:32.836Z,11.70
2023-02-24T07:52:32.805Z,8.20
2023-02-24T07:53:32.778Z,12.00
2023-02-24T07:54:32.748Z,10.00
2023-02-24T07:55:32.737Z,9.30
2023-02-24T07:56:32.687Z,7.70
2023-02-24T07:57:32.659Z,12.60
2023-02-24T07:58:32.628Z,10.40
2023-02-24T07:59:32.657Z,13.30
2023-02-24T08:00:32.575Z,12.60
2023-02-24T08:01:32.540Z,12.00
2023-02-24T08:03:32.481Z,12.30
2023-02-24T08:04:33.984Z,10.40
2023-02-24T08:05:32.480Z,11.50
